Hutchinson Island, Florida
Current Conditions -  °F | °C
As of 1:53 PM on Sunday 21 Dec 2014 (Local Time) from KFPR Reporting Station
Broken Clouds Broken Clouds  
Wind Chill: 77°   Ceiling: 10000
Heat Index: 79°   Visibility: 10mi
Dew Point: 66°   Wind: 10mph
Humidity: 69%   Direction: 110°ESE
Pressure: 30.03"   Gusts: NA
Location:  27.3823°N, 80.2604°W
Report Text: KFPR 211853Z 11009KT 10SM BKN100 25/19 A3003 RMK AO2 SLP167 T02500189
Loading
Personal Weather Stations






























Interactive Weather Map New forecast layout! Learn more

10-Day Weather Forecast

Advertisements
Track Severe Weather on mobile